AirNav   Everest Fuels
 
 510 users online  

13W Camano Island Airfield
Stanwood, Washington, USA

GOING TO STANWOOD?


FAA INFORMATION EFFECTIVE 30 DECEMBER 2021

Location

FAA Identifier: 13W
Lat/Long: 48-15-25.0000N 122-26-10.3000W
48-15.416667N 122-26.171667W
48.2569444,-122.4361944
(estimated)
Elevation: 145 ft. / 44 m (estimated)
Variation: 21E (1985)
From city: 3 miles NW of STANWOOD, WA
Time zone: UTC -8 (UTC -7 during Daylight Saving Time)
Zip code: 98292

Airport Operations

Airport use: Open to the public
Activation date: 01/1964
Control tower: no
ARTCC: SEATTLE CENTER
FSS: SEATTLE FLIGHT SERVICE STATION
NOTAMs facility: SEA (NOTAM-D service available)
Attendance: MON-THUR 0830-1730
Wind indicator: yes
Segmented circle: no

Airport Communications

CTAF: 122.9
WX AWOS-3 at OKH (9 nm W): 132.775 (360-675-8431)
WX ASOS at NUW (10 nm NW): PHONE 360-257-8813
WX AWOS-3PT at AWO (12 nm SE): 135.625 (360-435-8045)
WX AWOS-3 at BVS (13 nm N): 121.125 (360-757-7767)
WX AWOS-3P at 0S9 (19 nm SW): 119.025 (360-379-1199)

Nearby radio navigation aids

VOR radial/distance  VOR name  Freq  Var
CVVr067/11.5PENN COVE VOR/DME117.2019E
PAEr323/21.2PAINE VOR/DME110.6020E

 
NDB name  Hdg/Dist  Freq  Var  ID
SKAGIT/BAY VIEW167/12.724016EBVS -... ...- ...
FRIDAY HARBOR106/28.028417EFHR ..-. .... .-.
EDIZ HOOK063/39.333817ENOW -. --- .--

Airport Services

Parking: tiedowns
Airframe service: MAJOR
Powerplant service: MAJOR
Bottled oxygen: NONE
Bulk oxygen: NONE

Runway Information

Runway 16/34

Dimensions: 1750 x 24 ft. / 533 x 7 m
Surface: asphalt, in fair condition
RUNWAY 16  RUNWAY 34
Latitude: 48-15.560087N48-15.272197N
Longitude: 122-26.170903W122-26.172307W
Elevation: 121.0 ft.145.0 ft.
Traffic pattern: rightright
Runway heading: 159 magnetic, 180 true339 magnetic, 000 true
Markings: nonenone
Obstructions: 60 ft. tree, 200 ft. from runway, 90 ft. both sides of centerline
7 FT BRUSH, 21 FT L FR THLD; 45 FT TREES, 50 FT L FR THLD; 10FT BRUSH, 67 FT CNTRD FR THLD.
20 ft. brush, 200 ft. from runway, 20 ft. right of centerline
ROAD AT 22 FT; 4 FT; CABLE FENCE AT 55 FT; 10 FT BRUSH AT 55 FT; 34 FT POLE WITH WIRES & 14 FT TREES AT 22 FT, 90 FT R;

Airport Ownership and Management from official FAA records

Ownership: Privately-owned
Owner: STEVEN & NORMA KNOPP
1212 MOORE RD #2
CAMANO ISLAND, WA 98282
Phone 360-629-4812
Manager: STEVEN & NORMA KNOPP
1212 MOORE RD #2
CAMANO ISLAND, WA 98282
Phone 360-629-4812

Airport Operational Statistics

Aircraft based on the field: 8
Single engine airplanes: 8
    
Aircraft operations: avg 25/week *
58% local general aviation
42% transient general aviation
* for 12-month period ending 31 December 2019

Additional Remarks

STUDENT LANDINGS NOT RCMDD UNLESS ACCOMPANIED BY AN INSTRUCTOR.
FIRST 1049 FT OF RY 16 HAS 3 % UPHILL SLOP TO THE SOUTH.
PARALLEL DRIVEWAY ADJACENT TO RY 16/34.
DO NOT TAXI ON GRASS OCT - MAY.
50 FT TREES, 60 FT E OF CNTRLN IN PRI SFC.
NO TAKE-OFFS OR LANDINGS DURING HOURS OF DARKNESS.
FOR CD CTC WHIDBEY APCH AT 360-257-3310.

Instrument Procedures

There are no published instrument procedures at 13W.

Some nearby airports with instrument procedures:

KOKH - AJ Eisenberg Airport (9 nm W)
KNUW - Whidbey Island Naval Air Station (Ault Field) (10 nm NW)
KAWO - Arlington Municipal Airport (12 nm SE)
KBVS - Skagit Regional Airport (13 nm N)
0S9 - Jefferson County International Airport (19 nm SW)
 
Loc | Ops | Rwys | IFR | FBO | Links
Com | Nav | Svcs | Stats | Notes
Area around 13W (Camano Island Airfield)
 
Road maps at: MapQuest Bing Google
 
Aerial photo
WARNING: Photo may not be current or correct
Aerial photo of 13W (Camano Island Airfield)
Photo taken 23-Nov-2007

Do you have a better or more recent aerial photo of Camano Island Airfield that you would like to share? If so, please send us your photo.

 
Sectional chart

 
Airport distance calculator
Flying to Camano Island Airfield? Find the distance to fly.

From to 13W

Sunrise and sunset
Times for 25-Jan-2022
 Local
(UTC-8)
 Zulu
(UTC)
Morning civil twilight07:1315:13
Sunrise07:4815:48
Sunset16:5700:57
Evening civil twilight17:3101:31

Current date and time
Zulu (UTC)  25-Jan-2022 08:47:32
Local (UTC-8)  25-Jan-2022 00:47:32
 
METAR
KNUW 
10nm NW 
250756Z 06005KT 8SM OVC009 04/02 A3040 RMK AO2 SLP294 T00390017 400560033
KAWO 
12nm SE 
250756Z AUTO 04004KT 10SM OVC004 02/02 A3037 RMK AO2 SLP290 T00220017 400440017 FZRANO PNO $
KBVS 
13nm N 
250835Z AUTO 00000KT 10SM OVC007 02/02 A3036 RMK A01
K0S9 
19nm SW 
250815Z AUTO 00000KT 10SM OVC008 04/03 A3035 RMK AO2
TAF
KNUW 
10nm NW 
2507/2607 VRB06KT 6000 BR BKN008 OVC011 QNH3030INS TEMPO 2512/2518 1600 BR OVC005 FM260000 34008KT 4800 BR BKN008 BKN010 BKN200 QNH3024INS T01/2512Z T07/2523Z FS30172
NOTAMs
Click for the latest NOTAMs
NOTAMs are issued by the DoD/FAA and will open in a separate window not controlled by AirNav.

 

 
 

Would you like to see your business listed on this page?

 If your business provides an interesting product or service to pilots, flight crews, aircraft, or users of the Camano Island Airfield, you should consider listing it here.  To start the listing process, click on the button below
 
Add a business
 

Other Pages about Camano Island Airfield

Update a link
 
Copyright © AirNav, LLC. All rights reserved. Privacy Policy  Contact